This is the latest recevied weather packets stored in our database for station/object DB0PET-13. If no packets are shown the sender has not sent any weather packets the latest 1 day(s).
| Time | Temp. | Humidity | Pressure | Rain* | Wind** | Luminosity | Snow |
|---|---|---|---|---|---|---|---|
| 1777988889 | 18.89° C | 63% | 1011.9 hPa | 0 mm | 0.89 m/s, 64° | - | - |
| 1777987928 | 20° C | 61% | 1012 hPa | 0 mm | 1.34 m/s, 124° | - | - |
| 1777986969 | 20° C | 63% | 1012.2 hPa | 0 mm | 0.89 m/s, 119° | - | - |
| 1777986009 | 18.89° C | 66% | 1012.2 hPa | 0 mm | 1.34 m/s, 98° | - | - |
| 1777985049 | 19.44° C | 62% | 1012.4 hPa | 0 mm | 0.89 m/s, 104° | - | - |
| 1777984090 | 20° C | 57% | 1012.4 hPa | 0 mm | 1.34 m/s, 67° | - | - |
| 1777983129 | 20° C | 57% | 1012.8 hPa | 0 mm | 0.89 m/s, 111° | - | - |
| 1777982168 | 20° C | 56% | 1012.9 hPa | 0 mm | 0.89 m/s, 79° | - | - |
| 1777981210 | 20° C | 57% | 1012.9 hPa | 0 mm | 1.34 m/s, 7° | - | - |
| 1777980249 | 20.56° C | 56% | 1013.2 hPa | 0 mm | 0 m/s | - | - |
| 1777979289 | 22.22° C | 54% | 1013.2 hPa | 0 mm | 0 m/s | - | - |
| 1777978330 | 20° C | 60% | 1013.4 hPa | 0 mm | 0 m/s | - | - |
| 1777977370 | 19.44° C | 62% | 1013.5 hPa | 0 mm | 0 m/s | - | - |
| 1777976726 | 19.44° C | 64% | 1013.5 hPa | 0 mm | 0.89 m/s, 253° | - | - |
| 1777976532 | 19.44° C | 64% | 1013.5 hPa | 0 mm | 0.89 m/s, 253° | - | - |
| 1777976409 | 19.44° C | 64% | 1013.5 hPa | 0 mm | 0.89 m/s, 253° | - | - |
| 1777975450 | 18.89° C | 67% | 1013.8 hPa | 0 mm | 0.45 m/s, 211° | - | - |
| 1777974489 | 18.89° C | 70% | 1013.7 hPa | 0 mm | 0 m/s | - | - |
| 1777973530 | 16.67° C | 76% | 1013.9 hPa | 0 mm | 0.89 m/s, 130° | - | - |
| 1777972570 | 16.67° C | 78% | 1014.1 hPa | 0 mm | 0.89 m/s, 104° | - | - |
| 1777971609 | 16.67° C | 77% | 1014.1 hPa | 0 mm | 0.45 m/s, 256° | - | - |
| 1777970649 | 16.67° C | 76% | 1014.1 hPa | 0 mm | 0 m/s | - | - |
| 1777969692 | 16.11° C | 80% | 1014.4 hPa | 0 mm | 0.89 m/s, 234° | - | - |
| 1777968729 | 15.56° C | 81% | 1014.3 hPa | 0 mm | 0 m/s | - | - |
| 1777967827 | 15.56° C | 81% | 1014.5 hPa | 0 mm | 0.45 m/s, 268° | - | - |
* Rain latest hour (hover to see other rain measurements)
** Current wind speed in m/s (hover to see current wind gust speed)